Time;durP1;ratioP1;P1;durP2;ratioP2;P2;SDS_P1;SDS_P2;PMS_P1;PMS_P2;Temp;Humidity;BMP_temperature;BMP_pressure;BME280_temperature;BME280_humidity;BME280_pressure;Samples;Min_cycle;Max_cycle;Signal;HPM_P1;HPM_P2
2021/03/05 00:01:13;;;;;;;1.88;1.05;;;14.70;55.00;;;;;;5033513;28;20035;-64
2021/03/05 00:03:38;;;;;;;3.00;0.85;;;14.50;55.50;;;;;;5051457;28;20420;-64
2021/03/05 00:06:04;;;;;;;3.83;0.88;;;14.70;55.10;;;;;;5051741;28;20047;-64
2021/03/05 00:08:30;;;;;;;4.22;1.17;;;14.70;55.10;;;;;;5051284;28;20074;-64
2021/03/05 00:10:55;;;;;;;5.28;1.38;;;14.40;55.00;;;;;;5051573;28;20036;-64
2021/03/05 00:13:24;;;;;;;3.72;0.90;;;14.70;55.20;;;;;;5051264;28;20017;-63
2021/03/05 00:15:50;;;;;;;2.75;1.08;;;14.60;55.20;;;;;;5053194;28;20040;-62
2021/03/05 00:18:16;;;;;;;4.35;1.20;;;14.60;55.30;;;;;;5051283;28;20033;-63
2021/03/05 00:20:48;;;;;;;3.58;0.98;;;14.60;55.40;;;;;;5050911;28;20068;-63
2021/03/05 00:23:14;;;;;;;3.70;0.95;;;14.60;55.40;;;;;;5051198;28;20112;-63
2021/03/05 00:25:40;;;;;;;3.65;1.13;;;14.60;55.40;;;;;;5051211;28;20017;-63
2021/03/05 00:28:06;;;;;;;4.88;1.15;;;14.50;55.40;;;;;;5051239;28;20075;-63
2021/03/05 00:30:34;;;;;;;4.10;1.00;;;14.60;55.50;;;;;;5051135;28;20029;-63
2021/03/05 00:33:00;;;;;;;2.22;1.05;;;14.50;55.50;;;;;;5051010;28;20513;-63
2021/03/05 00:35:26;;;;;;;3.40;1.00;;;14.50;55.50;;;;;;5051448;28;20028;-63
2021/03/05 00:37:53;;;;;;;6.53;1.45;;;14.80;55.70;;;;;;5051129;28;20028;-63
2021/03/05 00:40:20;;;;;;;2.88;0.80;;;14.60;76.10;;;;;;5051146;28;20025;-63
2021/03/05 00:42:47;;;;;;;2.88;1.00;;;14.50;55.70;;;;;;5051001;28;20032;-63
2021/03/05 00:45:16;;;;;;;3.60;1.00;;;14.30;55.60;;;;;;5050944;28;20025;-63
2021/03/05 00:47:42;;;;;;;2.75;1.02;;;14.50;55.80;;;;;;5053827;28;20032;-63
2021/03/05 00:50:09;;;;;;;2.15;0.70;;;14.50;55.80;;;;;;5054787;28;20029;-63
2021/03/05 00:52:34;;;;;;;3.08;1.17;;;14.50;55.80;;;;;;5054382;28;20139;-63
2021/03/05 00:55:00;;;;;;;4.85;1.00;;;14.50;55.90;;;;;;5054594;28;20052;-63
2021/03/05 00:57:26;;;;;;;3.67;1.60;;;14.40;76.20;;;;;;5054601;28;20082;-63
2021/03/05 00:59:52;;;;;;;2.95;1.17;;;14.40;55.90;;;;;;5054354;28;20087;-63
2021/03/05 01:02:18;;;;;;;3.60;1.00;;;14.40;56.00;;;;;;5054563;28;20157;-64
2021/03/05 01:04:44;;;;;;;2.08;0.80;;;14.60;76.50;;;;;;5054217;28;20029;-63
2021/03/05 01:07:10;;;;;;;3.42;1.15;;;14.40;56.00;;;;;;5053964;28;20067;-63
2021/03/05 01:09:36;;;;;;;3.28;1.00;;;14.30;76.30;;;;;;5054031;28;20029;-63
2021/03/05 01:12:01;;;;;;;3.28;1.20;;;14.30;56.00;;;;;;5054286;28;20040;-63
2021/03/05 01:14:27;;;;;;;2.38;1.08;;;14.40;56.00;;;;;;5053988;28;20055;-63
2021/03/05 01:16:53;;;;;;;1.65;1.15;;;14.30;56.00;;;;;;5055673;28;20045;-63
2021/03/05 01:19:19;;;;;;;5.05;1.27;;;14.30;76.50;;;;;;5054050;28;20053;-63
2021/03/05 01:21:45;;;;;;;3.25;1.08;;;14.30;56.10;;;;;;5054230;28;20028;-63
2021/03/05 01:24:11;;;;;;;3.50;1.92;;;14.40;56.10;;;;;;5054003;28;20029;-62
2021/03/05 01:26:40;;;;;;;2.10;0.85;;;14.30;56.10;;;;;;5053742;28;20028;-63
2021/03/05 01:29:07;;;;;;;2.90;1.17;;;14.30;56.20;;;;;;5035944;28;20467;-63
2021/03/05 01:31:33;;;;;;;3.53;1.38;;;14.30;56.20;;;;;;5035615;28;20551;-63
2021/03/05 01:33:59;;;;;;;2.30;1.17;;;14.30;56.20;;;;;;5053673;28;20032;-63
2021/03/05 01:36:25;;;;;;;2.25;1.10;;;14.30;56.20;;;;;;5053771;28;20033;-63
2021/03/05 01:38:50;;;;;;;2.20;0.88;;;14.30;56.20;;;;;;5053756;28;20025;-63
2021/03/05 01:41:16;;;;;;;2.97;0.90;;;14.30;56.30;;;;;;5053588;28;20036;-63
2021/03/05 01:43:41;;;;;;;2.17;0.90;;;14.20;56.20;;;;;;5035792;28;20025;-63
2021/03/05 01:46:07;;;;;;;2.53;0.98;;;14.20;56.20;;;;;;5053877;28;20052;-63
2021/03/05 01:48:35;;;;;;;2.20;1.00;;;14.20;56.20;;;;;;5053576;28;20036;-63
2021/03/05 01:51:16;;;;;;;2.78;0.80;;;14.00;56.10;;;;;;5053457;28;20387;-63
2021/03/05 01:53:44;;;;;;;1.80;1.05;;;14.20;56.30;;;;;;5053507;28;20048;-63
2021/03/05 01:56:28;;;;;;;2.58;0.88;;;14.20;56.30;;;;;;5053134;28;20025;-62
2021/03/05 01:58:53;;;;;;;2.55;0.75;;;14.20;56.40;;;;;;5053128;28;20040;-63
2021/03/05 02:01:19;;;;;;;1.85;1.00;;;14.30;62.20;;;;;;5053278;28;20055;-63
2021/03/05 02:03:44;;;;;;;1.77;1.00;;;14.10;56.40;;;;;;5035331;28;20087;-63
2021/03/05 02:06:11;;;;;;;1.75;1.02;;;14.10;77.00;;;;;;5053226;28;20035;-63
2021/03/05 02:08:36;;;;;;;4.22;0.80;;;14.10;56.40;;;;;;5052998;28;20415;-63
2021/03/05 02:11:02;;;;;;;3.42;1.17;;;14.00;56.30;;;;;;5052975;28;20037;-63
2021/03/05 02:13:27;;;;;;;3.03;0.95;;;14.10;56.40;;;;;;5053050;28;20379;-63
2021/03/05 02:15:55;;;;;;;1.85;1.05;;;14.10;56.40;;;;;;5052773;28;20100;-62
2021/03/05 02:18:39;;;;;;;1.88;0.80;;;14.10;56.40;;;;;;5053968;28;20051;-63
2021/03/05 02:21:38;;;;;;;1.77;1.00;;;14.10;77.10;;;;;;5052883;28;20017;-63
2021/03/05 02:24:23;;;;;;;1.58;0.80;;;14.10;56.40;;;;;;5034875;28;20021;-62
2021/03/05 02:27:11;;;;;;;1.73;1.02;;;14.10;56.40;;;;;;5052985;28;20035;-64
2021/03/05 02:30:13;;;;;;;1.15;0.93;;;14.10;56.40;;;;;;5052775;28;20060;-63
2021/03/05 02:32:48;;;;;;;2.58;1.48;;;14.10;56.40;;;;;;5052349;28;20041;-63
2021/03/05 02:35:15;;;;;;;1.77;0.93;;;14.10;56.50;;;;;;5034602;28;20112;-63
2021/03/05 02:37:44;;;;;;;3.03;1.08;;;14.00;56.50;;;;;;5052580;28;20067;-63
2021/03/05 02:40:40;;;;;;;2.25;1.00;;;14.20;77.50;;;;;;5052525;28;20053;-63
2021/03/05 02:43:10;;;;;;;1.80;0.88;;;14.00;56.50;;;;;;5031685;28;20029;-63
2021/03/05 02:45:38;;;;;;;1.77;0.80;;;14.10;56.50;;;;;;5052501;28;20052;-62
2021/03/05 02:48:08;;;;;;;3.45;1.15;;;14.00;56.60;;;;;;5052407;28;20021;-63
2021/03/05 02:50:36;;;;;;;2.22;0.90;;;14.00;77.10;;;;;;5052209;28;20028;-62
2021/03/05 02:53:04;;;;;;;1.75;1.00;;;13.90;56.50;;;;;;5052358;28;20040;-63
2021/03/05 02:55:31;;;;;;;3.22;1.27;;;13.50;77.00;;;;;;5052227;28;20045;-63
2021/03/05 02:57:59;;;;;;;1.55;1.20;;;13.90;56.50;;;;;;5052235;28;20071;-62
2021/03/05 03:00:26;;;;;;;2.05;0.90;;;14.00;77.30;;;;;;5052101;28;20541;-63
2021/03/05 03:02:53;;;;;;;1.90;0.93;;;13.90;77.20;;;;;;5052164;28;20515;-63
2021/03/05 03:05:19;;;;;;;1.23;0.90;;;13.90;56.60;;;;;;5034260;28;20040;-62
2021/03/05 03:07:46;;;;;;;1.73;1.13;;;13.90;56.60;;;;;;5033994;28;20021;-63
2021/03/05 03:10:12;;;;;;;2.42;1.00;;;13.90;56.70;;;;;;5051565;28;20067;-63
2021/03/05 03:12:38;;;;;;;1.92;1.20;;;13.90;56.70;;;;;;5051882;28;20044;-63
2021/03/05 03:15:09;;;;;;;1.63;0.90;;;13.70;56.60;;;;;;5051837;28;20021;-63
2021/03/05 03:17:38;;;;;;;4.57;1.00;;;13.90;56.70;;;;;;5052648;28;20098;-63
2021/03/05 03:20:05;;;;;;;1.88;0.90;;;14.00;78.40;;;;;;5052137;28;20104;-63
2021/03/05 03:22:31;;;;;;;1.38;1.13;;;13.90;56.70;;;;;;5033893;28;20479;-63
2021/03/05 03:24:57;;;;;;;1.95;1.13;;;13.90;56.70;;;;;;5052121;28;20074;-62
2021/03/05 03:27:22;;;;;;;1.95;1.00;;;13.80;56.70;;;;;;5051837;28;20028;-63
2021/03/05 03:29:48;;;;;;;1.92;1.00;;;13.90;56.80;;;;;;5051780;28;20564;-63
2021/03/05 03:32:14;;;;;;;1.45;0.90;;;13.90;77.50;;;;;;5051702;28;20079;-63
2021/03/05 03:34:41;;;;;;;1.50;1.17;;;13.60;56.70;;;;;;5033939;28;20025;-62
2021/03/05 03:37:08;;;;;;;1.88;0.90;;;13.90;56.80;;;;;;5051978;28;20028;-62
2021/03/05 03:39:34;;;;;;;1.48;0.85;;;13.80;56.80;;;;;;5051969;28;20014;-63
2021/03/05 03:42:02;;;;;;;1.40;1.10;;;13.80;56.90;;;;;;5051646;28;20021;-63
2021/03/05 03:44:28;;;;;;;1.20;1.10;;;13.80;56.80;;;;;;5051479;28;20017;-62
2021/03/05 03:46:54;;;;;;;1.95;1.13;;;13.80;56.90;;;;;;5051604;28;20032;-63
2021/03/05 03:49:26;;;;;;;1.88;0.80;;;13.80;56.90;;;;;;5051501;28;20025;-63
2021/03/05 03:52:10;;;;;;;2.92;1.02;;;13.80;56.90;;;;;;5051420;28;20037;-63
2021/03/05 03:54:37;;;;;;;0.75;0.65;;;13.80;56.90;;;;;;5051515;28;20021;-63
2021/03/05 03:57:06;;;;;;;2.35;1.17;;;13.70;56.90;;;;;;5051691;28;20039;-62
2021/03/05 03:59:33;;;;;;;1.55;0.90;;;13.70;56.90;;;;;;5051492;28;20021;-62
2021/03/05 04:02:01;;;;;;;2.00;0.98;;;13.70;77.80;;;;;;5051721;28;20094;-62
2021/03/05 04:04:30;;;;;;;1.77;1.08;;;13.70;56.90;;;;;;5051533;28;20021;-63
2021/03/05 04:06:59;;;;;;;2.50;1.05;;;13.70;56.90;;;;;;5051697;28;20024;-63
2021/03/05 04:09:26;;;;;;;1.63;0.88;;;13.50;56.80;;;;;;5051519;28;20021;-63
2021/03/05 04:11:54;;;;;;;1.48;0.73;;;13.70;56.90;;;;;;5051386;28;20036;-63
2021/03/05 04:14:22;;;;;;;1.33;0.70;;;13.60;77.70;;;;;;5051335;28;20049;-62
2021/03/05 04:16:48;;;;;;;1.48;0.82;;;13.80;77.80;;;;;;5053061;28;20522;-63
2021/03/05 04:19:14;;;;;;;2.10;1.20;;;13.70;57.00;;;;;;5051676;28;20107;-62
2021/03/05 04:21:40;;;;;;;2.13;0.80;;;13.60;78.60;;;;;;5054594;28;20390;-62
2021/03/05 04:24:06;;;;;;;1.17;0.63;;;13.70;57.00;;;;;;5055551;28;20013;-63
2021/03/05 04:26:32;;;;;;;2.30;1.00;;;13.70;57.10;;;;;;5055453;28;20060;-62
2021/03/05 04:28:58;;;;;;;2.78;1.33;;;13.70;77.80;;;;;;5037013;28;20021;-63
2021/03/05 04:31:30;;;;;;;1.13;0.68;;;13.60;57.00;;;;;;5054979;28;20120;-62
2021/03/05 04:33:55;;;;;;;1.55;0.65;;;14.20;57.20;;;;;;5055028;28;20025;-62
2021/03/05 04:36:21;;;;;;;6.00;1.40;;;13.40;56.90;;;;;;5054968;28;20027;-62
2021/03/05 04:38:46;;;;;;;1.20;0.88;;;13.60;57.00;;;;;;5055137;28;20468;-63
2021/03/05 04:41:12;;;;;;;2.67;1.10;;;13.40;56.90;;;;;;5055125;28;20017;-62
2021/03/05 04:43:38;;;;;;;2.50;0.57;;;13.60;78.00;;;;;;5055131;28;20033;-63
2021/03/05 04:46:03;;;;;;;3.67;1.05;;;13.60;57.10;;;;;;5054662;28;20017;-62
2021/03/05 04:48:29;;;;;;;1.92;1.10;;;13.60;57.00;;;;;;5054569;28;20029;-62
2021/03/05 04:50:54;;;;;;;2.17;0.85;;;13.60;78.20;;;;;;5054489;28;20025;-62
2021/03/05 04:53:20;;;;;;;2.05;1.02;;;13.60;57.00;;;;;;5054858;28;20036;-62
2021/03/05 04:55:46;;;;;;;2.10;0.80;;;13.60;57.00;;;;;;5054948;28;20108;-62
2021/03/05 04:58:11;;;;;;;4.28;0.98;;;13.60;78.10;;;;;;5054665;28;20112;-62
2021/03/05 05:00:37;;;;;;;2.28;0.80;;;13.30;56.80;;;;;;5054658;28;20025;-62
2021/03/05 05:03:03;;;;;;;1.75;0.68;;;13.50;57.00;;;;;;5054301;28;20475;-62
2021/03/05 05:05:29;;;;;;;2.72;0.80;;;13.40;78.20;;;;;;5054272;28;20021;-62
2021/03/05 05:07:55;;;;;;;2.22;0.85;;;13.50;57.10;;;;;;5054217;28;20108;-62
2021/03/05 05:10:21;;;;;;;1.30;0.60;;;13.50;57.00;;;;;;5054496;28;20025;-62
2021/03/05 05:12:47;;;;;;;1.85;0.73;;;13.60;78.10;;;;;;5054096;28;20029;-62
2021/03/05 05:15:13;;;;;;;1.70;0.80;;;13.50;57.00;;;;;;5054334;28;20029;-62
2021/03/05 05:17:38;;;;;;;3.08;1.05;;;13.50;78.90;;;;;;5055916;28;20169;-62
2021/03/05 05:20:06;;;;;;;1.50;0.63;;;13.50;57.00;;;;;;5054128;28;20021;-62
2021/03/05 05:22:34;;;;;;;1.52;0.70;;;13.40;77.90;;;;;;5053977;28;20021;-62
2021/03/05 05:24:59;;;;;;;1.95;0.60;;;13.40;78.20;;;;;;5053966;28;20506;-62
2021/03/05 05:27:25;;;;;;;2.17;1.10;;;13.30;77.90;;;;;;5053704;28;20100;-62
2021/03/05 05:29:51;;;;;;;2.15;1.05;;;13.20;56.80;;;;;;5053964;28;20043;-63
2021/03/05 05:32:16;;;;;;;2.03;1.00;;;13.60;78.30;;;;;;5053039;28;20029;-62
2021/03/05 05:34:42;;;;;;;2.38;0.82;;;13.40;56.90;;;;;;5053942;28;20032;-63
2021/03/05 05:37:07;;;;;;;2.88;0.73;;;13.40;56.90;;;;;;5053821;28;20152;-62
2021/03/05 05:39:33;;;;;;;2.25;0.70;;;13.20;56.90;;;;;;5053629;28;20396;-63
2021/03/05 05:42:00;;;;;;;2.35;0.60;;;13.40;57.00;;;;;;5053671;28;20068;-64
2021/03/05 05:44:26;;;;;;;2.40;1.10;;;13.40;57.00;;;;;;5053969;28;20020;-62
2021/03/05 05:46:52;;;;;;;1.65;0.68;;;13.40;57.00;;;;;;5053821;28;20367;-64
2021/03/05 05:49:18;;;;;;;2.78;0.73;;;13.40;57.70;;;;;;5053622;28;20075;-63
2021/03/05 05:51:46;;;;;;;1.20;0.50;;;13.40;57.10;;;;;;5053248;28;20017;-63
2021/03/05 05:54:20;;;;;;;2.45;1.13;;;13.40;57.10;;;;;;5053369;28;20055;-63
2021/03/05 05:56:45;;;;;;;1.40;0.80;;;13.40;57.10;;;;;;5053654;28;20021;-63
2021/03/05 05:59:11;;;;;;;4.50;1.30;;;13.40;57.10;;;;;;5053295;28;20548;-63
2021/03/05 06:01:37;;;;;;;2.83;0.70;;;13.50;79.50;;;;;;5053333;28;20021;-63
2021/03/05 06:04:04;;;;;;;1.45;0.65;;;13.40;57.10;;;;;;5053188;28;20039;-63
2021/03/05 06:06:37;;;;;;;2.28;0.90;;;13.40;57.70;;;;;;5035190;28;20025;-63
2021/03/05 06:09:04;;;;;;;1.65;0.73;;;13.50;57.70;;;;;;5053226;28;20386;-63
2021/03/05 06:11:34;;;;;;;1.42;0.60;;;13.50;57.70;;;;;;5053118;28;20037;-63
2021/03/05 06:14:11;;;;;;;1.85;0.73;;;13.70;78.60;;;;;;5053306;28;20025;-63
2021/03/05 06:16:58;;;;;;;1.55;0.77;;;13.70;57.60;;;;;;5053885;28;20051;-62
2021/03/05 06:19:26;;;;;;;2.47;0.82;;;13.80;57.50;;;;;;5053154;28;20037;-62
2021/03/05 06:21:52;;;;;;;3.63;0.70;;;13.90;57.50;;;;;;5052920;28;20430;-62
2021/03/05 06:24:18;;;;;;;1.38;0.85;;;14.00;78.00;;;;;;5052723;28;20772;-62
2021/03/05 06:26:53;;;;;;;4.15;0.77;;;14.00;78.80;;;;;;5052824;28;20029;-62
2021/03/05 06:29:21;;;;;;;2.28;0.50;;;14.00;57.20;;;;;;5052810;28;20739;-63
2021/03/05 06:31:57;;;;;;;1.85;0.65;;;14.00;57.10;;;;;;5053017;28;20029;-62
2021/03/05 06:34:24;;;;;;;2.65;0.70;;;14.00;57.10;;;;;;5052472;28;20079;-62
2021/03/05 06:37:04;;;;;;;4.22;0.95;;;14.00;57.10;;;;;;5052456;28;20418;-62
2021/03/05 06:39:30;;;;;;;;;;;14.10;57.00;;;;;;5052894;28;20025;-63
2021/03/05 06:42:01;;;;;;;2.38;0.88;;;14.10;56.90;;;;;;5052963;28;20284;-62
2021/03/05 06:44:26;;;;;;;;;;;14.10;56.90;;;;;;5053238;28;20079;-61
2021/03/05 06:46:52;;;;;;;2.35;0.63;;;14.20;56.80;;;;;;5052755;28;19904;-63
2021/03/05 06:49:17;;;;;;;3.08;1.10;;;14.20;56.60;;;;;;5052493;28;20029;-62
2021/03/05 06:51:52;;;;;;;2.00;0.70;;;14.30;56.50;;;;;;5052389;28;20064;-62
2021/03/05 06:54:18;;;;;;;2.15;0.63;;;14.30;77.00;;;;;;5052460;28;20029;-62
2021/03/05 06:56:47;;;;;;;1.92;0.75;;;14.30;56.30;;;;;;5052626;28;20083;-63
2021/03/05 06:59:14;;;;;;;4.40;0.90;;;14.70;76.90;;;;;;5052184;28;20527;-62
2021/03/05 07:01:56;;;;;;;1.65;0.50;;;14.70;55.60;;;;;;5052357;28;20025;-64
2021/03/05 07:04:32;;;;;;;5.10;1.00;;;14.80;55.40;;;;;;5052274;28;20036;-63
2021/03/05 07:07:09;;;;;;;4.43;1.52;;;15.00;75.60;;;;;;5051215;28;20025;-63
2021/03/05 07:09:43;;;;;;;4.68;0.95;;;14.70;55.00;;;;;;5051720;28;20028;-63
2021/03/05 07:12:10;;;;;;;5.20;0.90;;;14.80;55.10;;;;;;5051938;28;20045;-63
2021/03/05 07:14:48;;;;;;;4.70;1.10;;;14.80;55.30;;;;;;5051866;28;20139;-63
2021/03/05 07:17:26;;;;;;;3.53;0.90;;;14.70;55.30;;;;;;5058058;28;20183;-63
2021/03/05 07:19:54;;;;;;;5.68;1.35;;;14.80;76.40;;;;;;5071814;28;20028;-63
2021/03/05 07:22:22;;;;;;;3.75;0.70;;;14.50;76.00;;;;;;5071855;28;20025;-61
2021/03/05 07:24:50;;;;;;;1.95;0.70;;;14.70;55.70;;;;;;5071818;28;20402;-61
2021/03/05 07:27:15;;;;;;;2.15;0.80;;;14.60;55.70;;;;;;5071557;28;20486;-62
2021/03/05 07:29:44;;;;;;;5.25;0.88;;;14.70;55.80;;;;;;5071687;28;20029;-62
2021/03/05 07:32:22;;;;;;;7.03;0.82;;;14.70;55.80;;;;;;5070535;28;20503;-61
2021/03/05 07:34:53;;;;;;;2.92;0.57;;;14.60;55.60;;;;;;5070588;28;20082;-61
2021/03/05 07:37:23;;;;;;;6.47;0.93;;;14.60;55.60;;;;;;5071623;28;20417;-61
2021/03/05 07:39:51;;;;;;;2.70;0.80;;;14.60;55.60;;;;;;5071592;28;20033;-61
2021/03/05 07:42:18;;;;;;;3.92;1.15;;;14.60;55.60;;;;;;5071840;28;20025;-61
2021/03/05 07:44:45;;;;;;;3.03;1.02;;;14.70;76.60;;;;;;5071430;28;20028;-61
2021/03/05 07:47:14;;;;;;;4.30;0.73;;;14.60;55.50;;;;;;5071482;28;20028;-61
2021/03/05 07:49:40;;;;;;;2.97;0.75;;;14.60;55.50;;;;;;5071693;28;20383;-61
2021/03/05 07:52:08;;;;;;;3.13;1.00;;;14.60;55.50;;;;;;5071531;28;20064;-62
2021/03/05 07:54:53;;;;;;;5.30;0.90;;;14.70;55.60;;;;;;5071381;28;20454;-61
2021/03/05 07:57:19;;;;;;;4.00;1.02;;;14.70;55.40;;;;;;5075089;28;20036;-61
2021/03/05 07:59:51;;;;;;;2.60;0.93;;;14.90;77.10;;;;;;5075508;28;20386;-62
2021/03/05 08:02:22;;;;;;;3.85;0.60;;;14.70;54.80;;;;;;5075609;28;20031;-62
2021/03/05 08:07:20;;;;;;;1.38;0.40;;;14.40;55.20;;;;;;5075645;28;20028;-61
2021/03/05 08:09:46;;;;;;;2.83;0.73;;;14.80;55.40;;;;;;5075157;28;20387;-62
2021/03/05 08:15:07;;;;;;;3.65;1.27;;;14.80;55.10;;;;;;5075342;28;20530;-62
2021/03/05 08:17:44;;;;;;;3.15;0.80;;;14.90;55.20;;;;;;5069221;27;20057;-62
2021/03/05 08:20:19;;;;;;;4.20;0.80;;;15.00;55.70;;;;;;5055361;28;20025;-62
2021/03/05 08:23:09;;;;;;;2.60;0.80;;;15.10;54.90;;;;;;5054883;28;20021;-63
2021/03/05 08:25:47;;;;;;;1.90;0.52;;;15.20;54.90;;;;;;5042659;28;20026;-62
2021/03/05 08:28:39;;;;;;;1.48;0.63;;;15.40;74.70;;;;;;5055243;28;20103;-62
2021/03/05 08:31:37;;;;;;;1.75;0.70;;;15.40;54.30;;;;;;5054852;28;20510;-62
2021/03/05 08:34:32;;;;;;;1.23;0.68;;;15.60;54.00;;;;;;5035749;28;20525;-62
2021/03/05 08:36:58;;;;;;;1.45;0.70;;;15.70;53.90;;;;;;5033417;28;20033;-62
2021/03/05 08:39:25;;;;;;;1.83;0.70;;;15.70;53.70;;;;;;5054768;28;20029;-62
2021/03/05 08:42:30;;;;;;;1.10;0.60;;;15.70;73.70;;;;;;5054791;28;20027;-62
2021/03/05 08:45:29;;;;;;;2.47;0.85;;;15.70;53.50;;;;;;5054593;28;20082;-62
2021/03/05 08:48:03;;;;;;;1.95;0.85;;;15.70;53.70;;;;;;5035737;28;20043;-62
2021/03/05 08:50:31;;;;;;;2.97;0.88;;;15.40;53.60;;;;;;5054250;28;20063;-62
2021/03/05 08:53:04;;;;;;;2.70;0.77;;;15.60;53.90;;;;;;5054100;28;20172;-62
2021/03/05 08:55:35;;;;;;;1.85;1.17;;;15.60;53.90;;;;;;5054764;28;20021;-62
2021/03/05 08:58:01;;;;;;;1.42;0.40;;;15.50;54.00;;;;;;5054564;28;20115;-62
2021/03/05 09:00:30;;;;;;;1.80;0.60;;;15.50;54.10;;;;;;5054166;28;20017;-62
2021/03/05 09:03:10;;;;;;;2.17;0.70;;;15.50;54.10;;;;;;5054283;28;20087;-62
2021/03/05 09:05:38;;;;;;;2.47;0.70;;;15.50;54.00;;;;;;5054135;28;20057;-62
2021/03/05 09:08:05;;;;;;;3.22;0.93;;;15.60;54.20;;;;;;5053056;28;20220;-62
2021/03/05 09:10:47;;;;;;;2.03;0.73;;;15.60;54.20;;;;;;5053995;28;20100;-62
2021/03/05 09:13:15;;;;;;;1.27;0.40;;;15.40;54.10;;;;;;5054123;28;20075;-62
2021/03/05 09:15:50;;;;;;;2.45;0.50;;;15.70;73.90;;;;;;5053864;28;20139;-62
2021/03/05 09:18:18;;;;;;;2.25;0.70;;;15.70;53.80;;;;;;5055701;28;20411;-63
2021/03/05 09:20:47;;;;;;;0.90;0.50;;;15.50;53.60;;;;;;5054034;28;20479;-62
2021/03/05 09:23:17;;;;;;;2.35;0.60;;;15.80;73.80;;;;;;5054042;28;20033;-62
2021/03/05 09:25:52;;;;;;;1.40;0.50;;;15.80;53.70;;;;;;5053960;28;20025;-62
2021/03/05 09:28:23;;;;;;;1.25;0.50;;;15.80;53.60;;;;;;5054113;28;20033;-62
2021/03/05 09:30:54;;;;;;;1.40;0.68;;;16.20;53.70;;;;;;5053819;28;20151;-63
2021/03/05 09:33:28;;;;;;;2.72;0.50;;;15.90;53.40;;;;;;5053906;28;20082;-62
2021/03/05 09:36:05;;;;;;;2.00;0.60;;;16.50;73.20;;;;;;5053783;28;20052;-62
2021/03/05 09:38:31;;;;;;;1.75;0.43;;;16.00;53.20;;;;;;5053705;28;20025;-62
2021/03/05 09:41:23;;;;;;;2.22;0.70;;;16.00;53.20;;;;;;5053626;28;20123;-62
2021/03/05 09:44:01;;;;;;;2.13;0.70;;;16.10;53.10;;;;;;5053911;28;20084;-62
2021/03/05 09:46:31;;;;;;;1.90;0.50;;;16.10;52.70;;;;;;5053470;28;20025;-62
2021/03/05 09:48:57;;;;;;;2.10;0.60;;;16.00;52.50;;;;;;5053743;28;20021;-62
2021/03/05 09:51:24;;;;;;;1.02;0.40;;;16.20;52.50;;;;;;5053275;28;20562;-62
2021/03/05 09:53:59;;;;;;;1.73;0.57;;;16.20;52.50;;;;;;5053620;28;20490;-62
2021/03/05 09:56:27;;;;;;;0.82;0.60;;;16.30;52.50;;;;;;5053602;28;20021;-62
2021/03/05 09:59:00;;;;;;;1.80;0.52;;;16.30;52.40;;;;;;5053511;28;20021;-62
2021/03/05 10:01:27;;;;;;;1.88;0.68;;;16.40;52.30;;;;;;5053506;28;20028;-62
2021/03/05 10:03:55;;;;;;;1.55;0.52;;;16.40;52.10;;;;;;5053160;28;20391;-62
2021/03/05 10:06:21;;;;;;;2.60;0.60;;;16.40;52.00;;;;;;5053072;28;20528;-62
2021/03/05 10:08:46;;;;;;;2.15;0.60;;;16.40;52.00;;;;;;5053051;28;20049;-62
2021/03/05 10:11:27;;;;;;;2.60;0.50;;;16.50;52.00;;;;;;5018678;28;20017;-63
2021/03/05 10:13:54;;;;;;;1.20;0.35;;;16.50;52.00;;;;;;5053321;28;20132;-62
2021/03/05 10:16:25;;;;;;;1.55;0.50;;;16.50;51.70;;;;;;5052732;28;20384;-62
2021/03/05 10:18:59;;;;;;;1.00;0.50;;;16.50;51.70;;;;;;5054137;28;20060;-62
2021/03/05 10:21:25;;;;;;;1.30;0.50;;;16.60;51.30;;;;;;5052685;28;20191;-63
2021/03/05 10:23:51;;;;;;;0.85;0.40;;;16.60;51.30;;;;;;5052905;28;20134;-62
2021/03/05 10:26:21;;;;;;;2.17;0.60;;;16.60;51.20;;;;;;5052524;28;20029;-62
2021/03/05 10:28:59;;;;;;;1.67;0.43;;;16.70;51.30;;;;;;5052972;28;20430;-63
2021/03/05 10:31:48;;;;;;;3.50;0.40;;;16.70;50.90;;;;;;5052704;28;20025;-64
2021/03/05 10:34:31;;;;;;;1.40;0.35;;;16.70;50.70;;;;;;5052449;28;20021;-63
2021/03/05 10:37:02;;;;;;;3.45;0.47;;;16.70;50.80;;;;;;5052471;28;20491;-62
2021/03/05 10:39:31;;;;;;;1.10;0.52;;;16.70;50.70;;;;;;5052489;28;20111;-62
2021/03/05 10:42:09;;;;;;;0.63;0.25;;;16.70;50.70;;;;;;5052416;28;20021;-62
2021/03/05 10:44:35;;;;;;;1.95;0.35;;;16.70;50.60;;;;;;5052799;28;20117;-64
2021/03/05 10:47:06;;;;;;;1.17;0.45;;;16.70;50.70;;;;;;5052179;28;20022;-63
2021/03/05 10:49:32;;;;;;;2.00;0.50;;;16.70;50.20;;;;;;5052379;28;20067;-63
2021/03/05 10:51:58;;;;;;;1.02;0.50;;;16.70;50.30;;;;;;5052503;28;20029;-63
2021/03/05 10:54:24;;;;;;;0.77;0.43;;;16.80;50.20;;;;;;5052512;28;20048;-63
2021/03/05 10:56:51;;;;;;;1.67;0.50;;;16.80;50.20;;;;;;5052361;28;20048;-63
2021/03/05 10:59:18;;;;;;;0.77;0.20;;;16.80;50.20;;;;;;5017786;28;20025;-63
2021/03/05 11:01:45;;;;;;;1.85;0.30;;;16.80;50.10;;;;;;5052074;28;20048;-62
2021/03/05 11:04:11;;;;;;;0.30;0.30;;;16.80;50.00;;;;;;5052257;28;20028;-62
2021/03/05 11:06:36;;;;;;;1.92;0.43;;;16.80;49.40;;;;;;5051604;28;20029;-64
2021/03/05 11:09:04;;;;;;;0.80;0.70;;;16.80;49.40;;;;;;5050893;28;20094;-64
2021/03/05 11:11:30;;;;;;;2.88;0.50;;;16.80;48.90;;;;;;5051245;28;20514;-63
2021/03/05 11:13:56;;;;;;;1.55;0.50;;;16.80;48.90;;;;;;5051990;28;20071;-64
2021/03/05 11:16:21;;;;;;;1.02;0.38;;;16.80;49.30;;;;;;5051956;28;20029;-64
2021/03/05 11:18:47;;;;;;;1.00;0.32;;;16.80;49.50;;;;;;5053245;28;20595;-64
2021/03/05 11:21:12;;;;;;;2.33;0.40;;;16.80;49.50;;;;;;5051381;28;20036;-64
2021/03/05 11:23:38;;;;;;;0.65;0.50;;;16.80;49.20;;;;;;5052032;28;20027;-64
2021/03/05 11:26:04;;;;;;;1.73;0.57;;;16.80;49.20;;;;;;5051806;28;20045;-64
2021/03/05 11:28:30;;;;;;;1.05;0.50;;;16.80;49.30;;;;;;5051946;28;20037;-64
2021/03/05 11:30:55;;;;;;;1.05;0.20;;;16.80;49.10;;;;;;5033094;28;20105;-65
2021/03/05 11:33:21;;;;;;;0.28;0.20;;;16.80;49.00;;;;;;5051628;28;20056;-65
2021/03/05 11:35:46;;;;;;;0.40;0.30;;;16.80;48.90;;;;;;5051758;28;20056;-65
2021/03/05 11:38:12;;;;;;;0.57;0.20;;;16.80;48.70;;;;;;5034131;28;20024;-65
2021/03/05 11:40:38;;;;;;;2.22;0.30;;;17.00;49.10;;;;;;5051650;28;20070;-65
2021/03/05 11:43:04;;;;;;;1.35;0.52;;;16.70;48.80;;;;;;5052018;28;20075;-66
2021/03/05 11:45:30;;;;;;;1.13;0.38;;;16.70;49.20;;;;;;5051787;28;20028;-66
2021/03/05 11:47:55;;;;;;;2.15;0.43;;;16.90;49.40;;;;;;5051835;28;20021;-65
2021/03/05 11:50:21;;;;;;;2.42;0.38;;;16.80;50.00;;;;;;5051488;28;20025;-64
2021/03/05 11:52:47;;;;;;;1.42;0.40;;;16.80;51.00;;;;;;5051565;28;20041;-62
2021/03/05 11:55:13;;;;;;;0.90;0.30;;;16.80;51.00;;;;;;5051733;28;20028;-65
2021/03/05 11:57:39;;;;;;;1.08;0.40;;;16.80;51.40;;;;;;5034133;28;20029;-65
2021/03/05 12:00:06;;;;;;;3.33;0.32;;;16.90;51.10;;;;;;5051826;28;20032;-65
2021/03/05 12:02:32;;;;;;;0.80;0.20;;;16.90;51.00;;;;;;5051441;28;20025;-64
2021/03/05 12:04:58;;;;;;;2.35;0.40;;;16.90;51.10;;;;;;5051741;28;20079;-64
2021/03/05 12:07:23;;;;;;;1.10;0.20;;;17.00;50.00;;;;;;5051493;28;20036;-64
2021/03/05 12:09:49;;;;;;;0.75;0.30;;;17.00;50.80;;;;;;5051750;28;20033;-64
2021/03/05 12:12:14;;;;;;;0.65;0.17;;;17.00;51.00;;;;;;5051746;28;20037;-64
2021/03/05 12:14:40;;;;;;;6.28;0.30;;;17.00;50.60;;;;;;5051569;28;20022;-64
2021/03/05 12:17:06;;;;;;;1.20;0.30;;;17.00;49.90;;;;;;5051499;28;20071;-63
2021/03/05 12:19:32;;;;;;;1.67;0.25;;;17.10;51.10;;;;;;5034745;28;20045;-63
2021/03/05 12:21:57;;;;;;;2.03;0.47;;;17.10;69.20;;;;;;5051459;28;20025;-63
2021/03/05 12:24:23;;;;;;;0.70;0.20;;;17.10;49.70;;;;;;5051519;28;20014;-64
2021/03/05 12:26:48;;;;;;;0.50;0.30;;;17.10;49.70;;;;;;5051616;28;20120;-64
2021/03/05 12:29:14;;;;;;;0.60;0.20;;;17.10;49.60;;;;;;5051212;28;20021;-63
2021/03/05 12:31:39;;;;;;;1.50;0.32;;;17.10;49.50;;;;;;5051367;28;20464;-64
2021/03/05 12:34:05;;;;;;;1.30;0.40;;;17.10;49.50;;;;;;5051185;28;20472;-63
2021/03/05 12:36:31;;;;;;;2.00;0.20;;;17.10;49.60;;;;;;5050091;28;20460;-64
2021/03/05 12:38:57;;;;;;;0.65;0.20;;;17.80;50.40;;;;;;5050968;28;20052;-63
2021/03/05 12:41:22;;;;;;;0.60;0.20;;;17.10;70.10;;;;;;5052414;28;20029;-63
2021/03/05 12:43:48;;;;;;;1.23;0.25;;;17.10;50.30;;;;;;5036737;28;20013;-63
2021/03/05 12:46:13;;;;;;;0.90;0.20;;;17.10;50.70;;;;;;5036743;28;20380;-63
2021/03/05 12:48:39;;;;;;;2.38;0.20;;;17.10;70.00;;;;;;5053707;28;20491;-63
2021/03/05 12:51:05;;;;;;;0.20;0.20;;;17.10;50.60;;;;;;5054365;28;20029;-63
2021/03/05 12:53:30;;;;;;;1.23;0.30;;;17.50;50.60;;;;;;5054569;28;20101;-63
2021/03/05 12:55:57;;;;;;;1.88;0.35;;;17.10;49.60;;;;;;5054249;28;20068;-63
2021/03/05 12:58:22;;;;;;;0.30;0.22;;;17.10;49.40;;;;;;5054405;28;20021;-64
2021/03/05 13:00:48;;;;;;;0.73;0.30;;;17.10;49.30;;;;;;5054439;28;20032;-63
2021/03/05 13:03:14;;;;;;;1.20;0.30;;;17.10;49.30;;;;;;5054850;28;20029;-64